Time;durP1;ratioP1;P1;durP2;ratioP2;P2;SDS_P1;SDS_P2;PMS_P1;PMS_P2;Temp;Humidity;BMP_temperature;BMP_pressure;BME280_temperature;BME280_humidity;BME280_pressure;Samples;Min_cycle;Max_cycle;Signal;HPM_P1;HPM_P2
2021/08/01 00:02:06;;;;;;;12.45;6.12;;;;;;;;;;4464904;32;20232;-58
2021/08/01 00:04:31;;;;;;;8.93;6.20;;;;;;;;;;4465138;32;20209;-57
2021/08/01 00:06:57;;;;;;;11.50;6.93;;;;;;;;;;4465280;32;20215;-57
2021/08/01 00:09:22;;;;;;;8.75;5.90;;;;;;;;;;4462225;32;20291;-58
2021/08/01 00:11:47;;;;;;;11.75;6.85;;;;;;;;;;4449416;32;20244;-58
2021/08/01 00:14:13;;;;;;;9.20;5.85;;;;;;;;;;4449553;32;20236;-58
2021/08/01 00:16:38;;;;;;;13.18;5.40;;;;;;;;;;4448997;32;20216;-58
2021/08/01 00:19:04;;;;;;;9.77;6.15;;;;;;;;;;4448225;32;20248;-58
2021/08/01 00:21:31;;;;;;;16.42;6.75;;;;;;;;;;4449013;32;20306;-58
2021/08/01 00:23:56;;;;;;;8.43;5.53;;;;;;;;;;4449277;32;20272;-58
2021/08/01 00:26:22;;;;;;;8.30;5.30;;;;;;;;;;4449535;32;20208;-56
2021/08/01 00:28:48;;;;;;;19.17;6.82;;;;;;;;;;4449478;32;20200;-57
2021/08/01 00:31:14;;;;;;;9.82;6.03;;;;;;;;;;4449070;32;20613;-56
2021/08/01 00:33:39;;;;;;;11.23;6.47;;;;;;;;;;4449384;32;20196;-57
2021/08/01 00:36:05;;;;;;;10.10;6.25;;;;;;;;;;4449438;32;20636;-58
2021/08/01 00:38:30;;;;;;;11.80;6.05;;;;;;;;;;4449552;32;20602;-57
2021/08/01 00:40:56;;;;;;;11.50;6.37;;;;;;;;;;4449497;32;20253;-58
2021/08/01 00:43:21;;;;;;;16.42;6.32;;;;;;;;;;4449298;32;20801;-57
2021/08/01 00:45:49;;;;;;;10.45;6.53;;;;;;;;;;4449483;32;20324;-58
2021/08/01 00:48:14;;;;;;;8.98;5.20;;;;;;;;;;4448868;32;20224;-58
2021/08/01 00:50:42;;;;;;;14.63;11.98;;;;;;;;;;4448917;32;20591;-57
2021/08/01 00:53:08;;;;;;;16.08;11.07;;;;;;;;;;4449181;32;20212;-58
2021/08/01 00:55:34;;;;;;;20.27;10.15;;;;;;;;;;4448825;32;20709;-59
2021/08/01 00:57:59;;;;;;;14.40;7.82;;;;;;;;;;4447738;32;20267;-58
2021/08/01 01:00:52;;;;;;;14.07;6.35;;;;;;;;;;4447463;32;20284;-57
2021/08/01 01:03:25;;;;;;;11.77;6.62;;;;;;;;;;4448186;32;20717;-57
2021/08/01 01:06:06;;;;;;;9.52;5.50;;;;;;;;;;4448928;32;20188;-59
2021/08/01 01:09:01;;;;;;;16.05;6.40;;;;;;;;;;4448745;32;20216;-57
2021/08/01 01:11:41;;;;;;;9.52;6.62;;;;;;;;;;4434869;32;20220;-56
2021/08/01 01:14:10;;;;;;;9.07;5.55;;;;;;;;;;4448817;32;20359;-58
2021/08/01 01:16:41;;;;;;;10.57;6.60;;;;;;;;;;4448341;32;20644;-57
2021/08/01 01:19:08;;;;;;;9.65;6.07;;;;;;;;;;4448661;32;20783;-57
2021/08/01 01:22:07;;;;;;;7.53;5.97;;;;;;;;;;4455407;32;20221;-57
2021/08/01 01:24:36;;;;;;;13.60;6.80;;;;;;;;;;4464205;32;20200;-56
2021/08/01 01:27:13;;;;;;;21.95;8.93;;;;;;;;;;4464411;32;20242;-57
2021/08/01 01:29:53;;;;;;;18.15;9.15;;;;;;;;;;4464320;32;20311;-58
2021/08/01 01:32:21;;;;;;;11.77;7.30;;;;;;;;;;4464051;32;20204;-58
2021/08/01 01:34:54;;;;;;;10.15;7.70;;;;;;;;;;4464429;32;20196;-57
2021/08/01 01:37:21;;;;;;;12.88;7.78;;;;;;;;;;4464330;32;20224;-57
2021/08/01 01:39:48;;;;;;;9.82;6.22;;;;;;;;;;4464041;32;20204;-57
2021/08/01 01:42:16;;;;;;;13.15;7.10;;;;;;;;;;4456983;32;20227;-58
2021/08/01 01:44:45;;;;;;;10.40;6.45;;;;;;;;;;4461085;32;20699;-57
2021/08/01 01:47:13;;;;;;;10.20;5.75;;;;;;;;;;4463435;32;20243;-57
2021/08/01 01:49:40;;;;;;;10.43;6.07;;;;;;;;;;4463814;32;20628;-57
2021/08/01 01:52:06;;;;;;;7.78;5.75;;;;;;;;;;4448046;32;20351;-57
2021/08/01 01:54:35;;;;;;;8.30;6.28;;;;;;;;;;4448365;32;20316;-57
2021/08/01 01:57:00;;;;;;;11.85;6.53;;;;;;;;;;4448797;32;20613;-58
2021/08/01 01:59:26;;;;;;;15.15;6.57;;;;;;;;;;4454312;32;20310;-59
2021/08/01 02:01:52;;;;;;;13.68;6.60;;;;;;;;;;4464910;32;20276;-58
2021/08/01 02:04:17;;;;;;;9.55;6.20;;;;;;;;;;4465504;32;20232;-58
2021/08/01 02:06:43;;;;;;;13.73;6.18;;;;;;;;;;4466856;32;20642;-57
2021/08/01 02:09:28;;;;;;;12.77;6.00;;;;;;;;;;4466673;32;20516;-58
2021/08/01 02:12:16;;;;;;;15.40;5.97;;;;;;;;;;4466877;32;20196;-57
2021/08/01 02:14:56;;;;;;;6.68;5.18;;;;;;;;;;4466263;32;20275;-58
2021/08/01 02:17:29;;;;;;;13.00;6.25;;;;;;;;;;4465001;32;20464;-57
2021/08/01 02:19:58;;;;;;;10.63;5.65;;;;;;;;;;4466942;32;20607;-56
2021/08/01 02:22:24;;;;;;;14.13;6.07;;;;;;;;;;4466478;32;20584;-57
2021/08/01 02:24:51;;;;;;;20.75;6.57;;;;;;;;;;4466356;32;20287;-57
2021/08/01 02:27:18;;;;;;;10.73;6.40;;;;;;;;;;4466694;32;20344;-58
2021/08/01 02:29:44;;;;;;;11.68;6.32;;;;;;;;;;4466193;32;20208;-57
2021/08/01 02:32:09;;;;;;;9.32;6.00;;;;;;;;;;4457655;32;20306;-57
2021/08/01 02:34:36;;;;;;;12.32;6.20;;;;;;;;;;4449329;32;20250;-57
2021/08/01 02:37:02;;;;;;;12.65;5.70;;;;;;;;;;4450908;32;20281;-57
2021/08/01 02:39:28;;;;;;;15.00;6.80;;;;;;;;;;4450577;32;20197;-57
2021/08/01 02:41:55;;;;;;;7.18;5.80;;;;;;;;;;4450836;32;20244;-57
2021/08/01 02:44:28;;;;;;;9.43;6.18;;;;;;;;;;4450750;32;20689;-58
2021/08/01 02:46:57;;;;;;;8.68;5.75;;;;;;;;;;4450745;32;20212;-59
2021/08/01 02:49:27;;;;;;;11.48;6.55;;;;;;;;;;4450671;32;20323;-58
2021/08/01 02:51:54;;;;;;;16.65;6.97;;;;;;;;;;4465239;32;20536;-58
2021/08/01 02:54:23;;;;;;;8.15;6.07;;;;;;;;;;4464781;32;20284;-58
2021/08/01 02:56:55;;;;;;;14.93;7.80;;;;;;;;;;4466308;32;20228;-58
2021/08/01 02:59:21;;;;;;;10.00;7.22;;;;;;;;;;4466100;32;20246;-56
2021/08/01 03:01:47;;;;;;;11.35;6.90;;;;;;;;;;4466101;32;20215;-58
2021/08/01 03:04:15;;;;;;;14.15;6.85;;;;;;;;;;4466142;32;20644;-58
2021/08/01 03:06:42;;;;;;;9.15;6.03;;;;;;;;;;4465865;32;20240;-58
2021/08/01 03:09:09;;;;;;;12.82;6.70;;;;;;;;;;4466166;32;20339;-57
2021/08/01 03:11:35;;;;;;;11.05;6.65;;;;;;;;;;4465881;32;20216;-56
2021/08/01 03:14:01;;;;;;;14.23;8.10;;;;;;;;;;4465637;32;20396;-56
2021/08/01 03:16:27;;;;;;;12.27;8.27;;;;;;;;;;4465688;32;20247;-58
2021/08/01 03:18:52;;;;;;;13.02;6.90;;;;;;;;;;4464430;32;20667;-57
2021/08/01 03:21:18;;;;;;;12.00;7.55;;;;;;;;;;4466060;32;20594;-57
2021/08/01 03:23:43;;;;;;;12.07;7.28;;;;;;;;;;4465555;32;20216;-58
2021/08/01 03:26:09;;;;;;;8.73;6.15;;;;;;;;;;4464573;32;20806;-56
2021/08/01 03:28:34;;;;;;;11.20;5.72;;;;;;;;;;4466072;32;20277;-56
2021/08/01 03:31:00;;;;;;;11.00;6.25;;;;;;;;;;4465859;32;20403;-57
2021/08/01 03:33:25;;;;;;;13.32;5.90;;;;;;;;;;4464684;32;20723;-58
2021/08/01 03:35:51;;;;;;;9.65;6.20;;;;;;;;;;4465547;32;20283;-56
2021/08/01 03:38:16;;;;;;;25.73;9.05;;;;;;;;;;4465419;32;20192;-59
2021/08/01 03:40:42;;;;;;;19.02;10.00;;;;;;;;;;4465241;32;20302;-58
2021/08/01 03:43:08;;;;;;;17.23;10.07;;;;;;;;;;4465166;32;20236;-56
2021/08/01 03:45:33;;;;;;;15.38;8.57;;;;;;;;;;4465225;32;20299;-58
2021/08/01 03:47:59;;;;;;;16.25;8.52;;;;;;;;;;4450029;32;20267;-58
2021/08/01 03:50:24;;;;;;;15.48;6.90;;;;;;;;;;4454568;32;20302;-56
2021/08/01 03:52:50;;;;;;;8.18;6.80;;;;;;;;;;4463806;32;20773;-56
2021/08/01 03:55:15;;;;;;;16.98;7.18;;;;;;;;;;4465713;32;20302;-58
2021/08/01 03:57:41;;;;;;;10.93;6.93;;;;;;;;;;4464384;32;20240;-58
2021/08/01 04:00:07;;;;;;;10.35;6.72;;;;;;;;;;4465211;32;20267;-58
2021/08/01 04:02:37;;;;;;;15.85;7.87;;;;;;;;;;4465030;32;20713;-58
2021/08/01 04:05:06;;;;;;;11.43;7.03;;;;;;;;;;4463966;32;20778;-57
2021/08/01 04:07:32;;;;;;;17.42;7.22;;;;;;;;;;4465161;32;20224;-58
2021/08/01 04:09:57;;;;;;;10.20;7.15;;;;;;;;;;4464104;32;20234;-57
2021/08/01 04:12:23;;;;;;;12.55;6.97;;;;;;;;;;4464911;32;20220;-57
2021/08/01 04:14:48;;;;;;;11.65;6.25;;;;;;;;;;4464602;32;20204;-57
2021/08/01 04:17:18;;;;;;;17.77;7.03;;;;;;;;;;4464975;32;20275;-56
2021/08/01 04:19:44;;;;;;;11.93;6.32;;;;;;;;;;4464613;32;20208;-57
2021/08/01 04:22:10;;;;;;;20.37;6.85;;;;;;;;;;4463849;32;20337;-57
2021/08/01 04:24:35;;;;;;;13.07;7.18;;;;;;;;;;4464144;32;20275;-56
2021/08/01 04:27:01;;;;;;;17.17;6.90;;;;;;;;;;4465155;32;20254;-57
2021/08/01 04:29:26;;;;;;;11.85;7.20;;;;;;;;;;4464558;32;20550;-58
2021/08/01 04:31:52;;;;;;;13.93;7.30;;;;;;;;;;4456925;32;20220;-57
2021/08/01 04:34:18;;;;;;;9.20;7.03;;;;;;;;;;4449045;32;20204;-57
2021/08/01 04:36:43;;;;;;;10.07;6.97;;;;;;;;;;4449184;32;20508;-58
2021/08/01 04:39:09;;;;;;;17.30;8.10;;;;;;;;;;4449261;32;20216;-58
2021/08/01 04:41:34;;;;;;;11.12;6.47;;;;;;;;;;4449017;32;20250;-57
2021/08/01 04:44:00;;;;;;;14.87;6.90;;;;;;;;;;4460862;32;20224;-58
2021/08/01 04:46:25;;;;;;;7.40;6.53;;;;;;;;;;4463423;32;20315;-57
2021/08/01 04:48:51;;;;;;;10.00;7.20;;;;;;;;;;4464810;32;20196;-58
2021/08/01 04:51:16;;;;;;;14.07;6.70;;;;;;;;;;4464498;32;20225;-58
2021/08/01 04:53:42;;;;;;;11.95;6.72;;;;;;;;;;4464642;32;20441;-57
2021/08/01 04:56:10;;;;;;;17.85;6.25;;;;;;;;;;4464965;32;20343;-58
2021/08/01 04:58:36;;;;;;;16.45;7.47;;;;;;;;;;4464509;32;20314;-58
2021/08/01 05:01:08;;;;;;;10.57;7.53;;;;;;;;;;4464400;32;20604;-58
2021/08/01 05:03:34;;;;;;;14.98;6.80;;;;;;;;;;4464260;32;20287;-57
2021/08/01 05:05:59;;;;;;;13.27;7.35;;;;;;;;;;4464679;32;20623;-58
2021/08/01 05:08:25;;;;;;;11.80;7.53;;;;;;;;;;4464449;32;20204;-58
2021/08/01 05:10:50;;;;;;;10.93;7.45;;;;;;;;;;4464762;32;20331;-57
2021/08/01 05:13:16;;;;;;;18.12;7.25;;;;;;;;;;4464221;32;20302;-58
2021/08/01 05:15:41;;;;;;;15.30;7.72;;;;;;;;;;4464209;32;20317;-56
2021/08/01 05:18:07;;;;;;;10.25;6.47;;;;;;;;;;4463237;32;20255;-57
2021/08/01 05:20:32;;;;;;;12.10;6.60;;;;;;;;;;4464227;32;20301;-58
2021/08/01 05:22:58;;;;;;;13.52;8.20;;;;;;;;;;4463033;32;20319;-56
2021/08/01 05:25:23;;;;;;;12.93;7.65;;;;;;;;;;4463138;32;20318;-57
2021/08/01 05:27:48;;;;;;;10.95;6.97;;;;;;;;;;4464291;32;20683;-57
2021/08/01 05:30:14;;;;;;;14.55;8.60;;;;;;;;;;4464446;32;20679;-58
2021/08/01 05:32:40;;;;;;;16.45;7.68;;;;;;;;;;4451187;32;20267;-57
2021/08/01 05:35:06;;;;;;;10.52;6.53;;;;;;;;;;4449094;32;20468;-58
2021/08/01 05:37:31;;;;;;;12.68;7.07;;;;;;;;;;4451837;32;20224;-57
2021/08/01 05:39:57;;;;;;;12.55;7.47;;;;;;;;;;4450685;32;20281;-58
2021/08/01 05:42:22;;;;;;;10.52;6.82;;;;;;;;;;4452166;32;20248;-57
2021/08/01 05:44:48;;;;;;;13.68;7.37;;;;;;;;;;4451385;32;20242;-58
2021/08/01 05:47:13;;;;;;;8.98;7.53;;;;;;;;;;4451934;32;20251;-58
2021/08/01 05:49:39;;;;;;;7.87;6.50;;;;;;;;;;4451402;32;20227;-57
2021/08/01 05:52:04;;;;;;;7.95;6.53;;;;;;;;;;4467264;32;20284;-57
2021/08/01 05:54:30;;;;;;;8.52;6.78;;;;;;;;;;4467028;32;20332;-57
2021/08/01 05:56:55;;;;;;;11.38;7.97;;;;;;;;;;4467486;32;20630;-56
2021/08/01 05:59:21;;;;;;;11.40;7.18;;;;;;;;;;4467291;32;20208;-58
2021/08/01 06:01:46;;;;;;;11.98;7.72;;;;;;;;;;4467433;32;20219;-57
2021/08/01 06:04:13;;;;;;;10.20;6.85;;;;;;;;;;4466699;32;20236;-56
2021/08/01 06:06:39;;;;;;;11.80;7.60;;;;;;;;;;4467278;32;20551;-56
2021/08/01 06:09:04;;;;;;;10.27;7.40;;;;;;;;;;4467382;32;20230;-59
2021/08/01 06:11:30;;;;;;;10.73;7.10;;;;;;;;;;4467377;32;20223;-58
2021/08/01 06:13:55;;;;;;;14.27;7.37;;;;;;;;;;4466665;32;20300;-57
2021/08/01 06:16:21;;;;;;;13.10;7.43;;;;;;;;;;4466918;32;20269;-58
2021/08/01 06:18:47;;;;;;;11.48;7.78;;;;;;;;;;4466705;32;20248;-58
2021/08/01 06:21:16;;;;;;;14.25;6.72;;;;;;;;;;4466777;32;20235;-58
2021/08/01 06:23:43;;;;;;;10.93;7.47;;;;;;;;;;4466783;32;20220;-57
2021/08/01 06:26:10;;;;;;;9.07;6.62;;;;;;;;;;4466711;32;20261;-57
2021/08/01 06:28:36;;;;;;;13.18;8.32;;;;;;;;;;4466848;32;20343;-57
2021/08/01 06:31:03;;;;;;;9.55;7.10;;;;;;;;;;4465655;32;20283;-58
2021/08/01 06:33:29;;;;;;;11.95;6.93;;;;;;;;;;4449727;32;20254;-58
2021/08/01 06:35:55;;;;;;;13.95;7.87;;;;;;;;;;4450843;32;20205;-58
2021/08/01 06:38:20;;;;;;;7.95;6.90;;;;;;;;;;4451021;32;20630;-58
2021/08/01 06:40:46;;;;;;;19.25;7.37;;;;;;;;;;4450664;32;20390;-60
2021/08/01 06:43:11;;;;;;;9.10;6.50;;;;;;;;;;4450679;32;20286;-57
2021/08/01 06:45:37;;;;;;;10.88;7.03;;;;;;;;;;4451109;32;20283;-58
2021/08/01 06:48:02;;;;;;;10.18;7.12;;;;;;;;;;4449044;32;20373;-56
2021/08/01 06:50:28;;;;;;;11.70;7.75;;;;;;;;;;4455800;32;20765;-58
2021/08/01 06:52:53;;;;;;;15.13;7.43;;;;;;;;;;4466400;32;20216;-56
2021/08/01 06:55:19;;;;;;;12.40;7.50;;;;;;;;;;4464956;32;20375;-57
2021/08/01 06:57:44;;;;;;;11.45;6.75;;;;;;;;;;4466400;32;20445;-58
2021/08/01 07:00:10;;;;;;;12.98;6.37;;;;;;;;;;4465940;32;20698;-58
2021/08/01 07:02:36;;;;;;;16.05;7.72;;;;;;;;;;4465769;32;20399;-58
2021/08/01 07:05:01;;;;;;;9.32;7.30;;;;;;;;;;4466158;32;20208;-58
2021/08/01 07:07:27;;;;;;;11.57;6.43;;;;;;;;;;4466208;32;20323;-58
2021/08/01 07:09:52;;;;;;;10.10;6.80;;;;;;;;;;4466316;32;20578;-57
2021/08/01 07:12:18;;;;;;;14.15;7.10;;;;;;;;;;4465288;32;20679;-58
2021/08/01 07:14:46;;;;;;;12.25;7.18;;;;;;;;;;4465612;32;20258;-58
2021/08/01 07:17:12;;;;;;;16.58;7.03;;;;;;;;;;4466168;32;20228;-57
2021/08/01 07:19:37;;;;;;;17.35;7.60;;;;;;;;;;4466045;32;20642;-58
2021/08/01 07:22:03;;;;;;;13.57;7.03;;;;;;;;;;4465103;32;20256;-58
2021/08/01 07:24:28;;;;;;;13.32;7.07;;;;;;;;;;4464639;32;20255;-57
2021/08/01 07:26:55;;;;;;;13.82;7.47;;;;;;;;;;4466362;32;20254;-58
2021/08/01 07:29:21;;;;;;;9.40;6.35;;;;;;;;;;4465907;32;20212;-57
2021/08/01 07:31:47;;;;;;;12.68;7.60;;;;;;;;;;4459766;32;20290;-57
2021/08/01 07:34:12;;;;;;;7.93;6.95;;;;;;;;;;4449341;32;20308;-57
2021/08/01 07:36:37;;;;;;;13.00;8.20;;;;;;;;;;4450305;32;20611;-57
2021/08/01 07:39:03;;;;;;;11.20;7.05;;;;;;;;;;4450070;32;20611;-58
2021/08/01 07:41:28;;;;;;;18.70;9.07;;;;;;;;;;4450019;32;20216;-57
2021/08/01 07:43:54;;;;;;;17.20;7.57;;;;;;;;;;4450244;32;20216;-57
2021/08/01 07:46:19;;;;;;;14.55;7.43;;;;;;;;;;4450503;32;20343;-57
2021/08/01 07:48:45;;;;;;;9.10;5.95;;;;;;;;;;4450772;32;20656;-58
2021/08/01 07:51:11;;;;;;;14.98;6.20;;;;;;;;;;4460277;32;20253;-58
2021/08/01 07:53:37;;;;;;;14.38;6.75;;;;;;;;;;4465698;32;20212;-58
2021/08/01 07:56:03;;;;;;;14.02;7.15;;;;;;;;;;4465828;32;20792;-58
2021/08/01 07:58:29;;;;;;;13.43;7.12;;;;;;;;;;4465714;32;20255;-58
2021/08/01 08:00:55;;;;;;;13.25;6.50;;;;;;;;;;4465732;32;20280;-58
2021/08/01 08:03:20;;;;;;;9.82;6.62;;;;;;;;;;4465262;32;20240;-58
2021/08/01 08:05:46;;;;;;;8.13;5.68;;;;;;;;;;4465979;32;20688;-58
2021/08/01 08:08:11;;;;;;;19.00;6.65;;;;;;;;;;4465316;32;20254;-58
2021/08/01 08:10:37;;;;;;;19.25;6.35;;;;;;;;;;4465398;32;20725;-58
2021/08/01 08:13:03;;;;;;;8.95;6.03;;;;;;;;;;4465668;32;20681;-58
2021/08/01 08:15:29;;;;;;;10.27;6.45;;;;;;;;;;4465628;32;20249;-57
2021/08/01 08:17:54;;;;;;;14.80;6.62;;;;;;;;;;4465848;32;20220;-58
2021/08/01 08:20:19;;;;;;;6.57;5.40;;;;;;;;;;4465590;32;20688;-57
2021/08/01 08:22:45;;;;;;;10.45;6.25;;;;;;;;;;4464707;32;20232;-57
2021/08/01 08:25:11;;;;;;;16.12;6.50;;;;;;;;;;4465246;32;20646;-58
2021/08/01 08:27:37;;;;;;;14.52;6.20;;;;;;;;;;4460085;32;20256;-58
2021/08/01 08:30:04;;;;;;;7.22;5.57;;;;;;;;;;4449778;32;20317;-58
2021/08/01 08:32:30;;;;;;;9.48;6.45;;;;;;;;;;4460014;32;20370;-59
2021/08/01 08:34:56;;;;;;;11.10;6.22;;;;;;;;;;4465404;32;20689;-58
2021/08/01 08:37:21;;;;;;;12.75;6.65;;;;;;;;;;4465419;32;20235;-58
2021/08/01 08:39:48;;;;;;;11.50;7.10;;;;;;;;;;4464761;32;20228;-58
2021/08/01 08:42:15;;;;;;;9.63;6.37;;;;;;;;;;4465037;32;20220;-58
2021/08/01 08:44:40;;;;;;;19.08;6.60;;;;;;;;;;4464260;32;20246;-57
2021/08/01 08:47:08;;;;;;;7.80;5.78;;;;;;;;;;4465157;32;20299;-57
2021/08/01 08:49:36;;;;;;;11.70;6.12;;;;;;;;;;4464667;32;20399;-56
2021/08/01 08:52:06;;;;;;;9.85;6.47;;;;;;;;;;4449144;32;20247;-58
2021/08/01 08:54:50;;;;;;;9.68;5.65;;;;;;;;;;4449776;32;20197;-58
2021/08/01 08:57:30;;;;;;;10.57;5.65;;;;;;;;;;4448425;32;20611;-58
2021/08/01 09:00:00;;;;;;;10.63;6.95;;;;;;;;;;4449211;32;20525;-57
2021/08/01 09:02:26;;;;;;;9.82;6.28;;;;;;;;;;4449178;32;20299;-58
2021/08/01 09:04:52;;;;;;;10.52;6.80;;;;;;;;;;4449253;32;20296;-57
2021/08/01 09:07:17;;;;;;;9.30;6.50;;;;;;;;;;4449419;32;20232;-57
2021/08/01 09:09:43;;;;;;;7.00;6.18;;;;;;;;;;4449059;32;20225;-58
2021/08/01 09:12:08;;;;;;;11.50;6.75;;;;;;;;;;4449244;32;20246;-58
2021/08/01 09:14:34;;;;;;;14.63;6.18;;;;;;;;;;4449314;32;20196;-58
2021/08/01 09:16:59;;;;;;;9.75;6.62;;;;;;;;;;4449281;32;20228;-57
2021/08/01 09:19:30;;;;;;;15.32;7.53;;;;;;;;;;4449136;32;20268;-58
2021/08/01 09:22:22;;;;;;;9.02;6.07;;;;;;;;;;4449553;32;20279;-58
2021/08/01 09:24:52;;;;;;;10.00;6.35;;;;;;;;;;4447631;32;20656;-57
2021/08/01 09:27:33;;;;;;;16.60;6.75;;;;;;;;;;4449125;32;20311;-57
2021/08/01 09:30:00;;;;;;;11.18;6.55;;;;;;;;;;4448923;32;20208;-58
2021/08/01 09:32:29;;;;;;;8.27;6.18;;;;;;;;;;4459713;32;20248;-58
2021/08/01 09:34:54;;;;;;;12.15;6.25;;;;;;;;;;4464623;32;20240;-57
2021/08/01 09:37:34;;;;;;;14.77;6.93;;;;;;;;;;4465309;32;20220;-58
2021/08/01 09:40:10;;;;;;;7.70;5.50;;;;;;;;;;4464878;32;20216;-58
2021/08/01 09:42:43;;;;;;;14.75;6.60;;;;;;;;;;4464807;32;20296;-58
2021/08/01 09:45:13;;;;;;;15.32;6.15;;;;;;;;;;4464966;32;20226;-58
2021/08/01 09:47:39;;;;;;;9.60;5.45;;;;;;;;;;4464583;32;20227;-58
2021/08/01 09:50:08;;;;;;;7.68;5.22;;;;;;;;;;4464167;32;20279;-58
2021/08/01 09:52:33;;;;;;;10.23;5.28;;;;;;;;;;4464675;32;20544;-58
2021/08/01 09:55:00;;;;;;;9.52;6.20;;;;;;;;;;4463375;32;20224;-58
2021/08/01 09:57:25;;;;;;;7.20;5.68;;;;;;;;;;4464752;32;20259;-57
2021/08/01 10:00:09;;;;;;;6.10;5.32;;;;;;;;;;4464480;32;20258;-58
2021/08/01 10:02:39;;;;;;;9.20;5.60;;;;;;;;;;4464298;32;20308;-58
2021/08/01 10:05:22;;;;;;;8.38;5.78;;;;;;;;;;4464126;32;20196;-58
2021/08/01 10:07:49;;;;;;;8.77;5.82;;;;;;;;;;4464391;32;20399;-58
2021/08/01 10:10:16;;;;;;;12.98;6.10;;;;;;;;;;4464277;32;20235;-58
2021/08/01 10:12:49;;;;;;;8.68;6.32;;;;;;;;;;4464102;32;20339;-58
2021/08/01 10:15:15;;;;;;;10.05;6.22;;;;;;;;;;4464886;32;20266;-57
2021/08/01 10:17:41;;;;;;;6.62;4.75;;;;;;;;;;4464937;32;20235;-56
2021/08/01 10:20:08;;;;;;;12.18;5.57;;;;;;;;;;4461219;32;20280;-57
2021/08/01 10:22:38;;;;;;;10.88;6.47;;;;;;;;;;4449552;32;20247;-57
2021/08/01 10:25:08;;;;;;;9.30;5.18;;;;;;;;;;4451857;32;20292;-57
2021/08/01 10:27:38;;;;;;;10.00;5.93;;;;;;;;;;4451367;32;20238;-57
2021/08/01 10:30:05;;;;;;;12.37;5.95;;;;;;;;;;4451481;32;20560;-56
2021/08/01 10:32:36;;;;;;;9.68;5.55;;;;;;;;;;4462143;32;20267;-58
2021/08/01 10:35:06;;;;;;;10.07;5.22;;;;;;;;;;4466905;32;20211;-57
2021/08/01 10:37:36;;;;;;;11.48;4.87;;;;;;;;;;4467061;32;20246;-57
2021/08/01 10:40:07;;;;;;;10.05;5.55;;;;;;;;;;4466878;32;20200;-58
2021/08/01 10:42:36;;;;;;;9.05;5.03;;;;;;;;;;4466752;32;20242;-57
2021/08/01 10:45:02;;;;;;;7.10;5.18;;;;;;;;;;4466695;32;20212;-57
2021/08/01 10:47:28;;;;;;;10.57;4.57;;;;;;;;;;4467013;32;20254;-57
2021/08/01 10:49:55;;;;;;;7.15;5.12;;;;;;;;;;4466484;32;20227;-57
2021/08/01 10:52:20;;;;;;;13.13;5.12;;;;;;;;;;4466570;32;20216;-57
2021/08/01 10:54:57;;;;;;;15.07;6.28;;;;;;;;;;4464690;32;20295;-58
2021/08/01 10:57:24;;;;;;;8.27;6.07;;;;;;;;;;4465901;32;20239;-58
2021/08/01 10:59:49;;;;;;;9.48;5.43;;;;;;;;;;4465948;32;20268;-58
2021/08/01 11:02:22;;;;;;;6.18;4.80;;;;;;;;;;4465841;32;20669;-58
2021/08/01 11:04:50;;;;;;;7.80;4.97;;;;;;;;;;4465574;32;20649;-57
2021/08/01 11:07:28;;;;;;;8.45;4.85;;;;;;;;;;4464950;32;20295;-57
2021/08/01 11:10:10;;;;;;;13.15;5.05;;;;;;;;;;4466167;32;20702;-57
2021/08/01 11:12:36;;;;;;;12.02;4.90;;;;;;;;;;4466087;32;20733;-58
2021/08/01 11:15:04;;;;;;;11.82;5.20;;;;;;;;;;4465763;32;20280;-57
2021/08/01 11:17:48;;;;;;;5.68;4.50;;;;;;;;;;4455013;32;20544;-58
2021/08/01 11:20:23;;;;;;;8.57;4.60;;;;;;;;;;4450480;32;20204;-57
2021/08/01 11:22:49;;;;;;;5.90;4.12;;;;;;;;;;4450356;32;20283;-57
2021/08/01 11:25:25;;;;;;;8.63;5.25;;;;;;;;;;4450200;32;20336;-58
2021/08/01 11:28:09;;;;;;;7.97;5.05;;;;;;;;;;4448942;32;20778;-57
2021/08/01 11:30:52;;;;;;;16.05;5.53;;;;;;;;;;4450019;32;20322;-57
2021/08/01 11:33:38;;;;;;;7.70;4.47;;;;;;;;;;4448491;32;20664;-57
2021/08/01 11:36:09;;;;;;;10.27;4.87;;;;;;;;;;4450080;32;20240;-58
2021/08/01 11:38:36;;;;;;;7.43;5.40;;;;;;;;;;4449906;32;20232;-58
2021/08/01 11:41:02;;;;;;;9.68;4.68;;;;;;;;;;4450286;32;20243;-58
2021/08/01 11:43:27;;;;;;;10.07;5.25;;;;;;;;;;4449700;32;20213;-57
2021/08/01 11:46:00;;;;;;;9.25;4.30;;;;;;;;;;4449888;32;20279;-58
2021/08/01 11:48:27;;;;;;;10.23;4.65;;;;;;;;;;4449986;32;20220;-57
2021/08/01 11:50:55;;;;;;;11.35;5.10;;;;;;;;;;4456110;32;20240;-58
2021/08/01 11:53:21;;;;;;;9.05;5.72;;;;;;;;;;4465467;32;20344;-58
2021/08/01 11:55:47;;;;;;;8.88;4.93;;;;;;;;;;4465393;32;20696;-58
2021/08/01 11:58:14;;;;;;;10.98;5.45;;;;;;;;;;4463770;32;20239;-57
2021/08/01 12:00:40;;;;;;;13.50;6.25;;;;;;;;;;4465764;32;20641;-58
2021/08/01 12:03:08;;;;;;;8.90;5.43;;;;;;;;;;4465960;32;20279;-57
2021/08/01 12:05:44;;;;;;;6.55;4.40;;;;;;;;;;4465867;32;20208;-58
2021/08/01 12:08:36;;;;;;;9.25;3.70;;;;;;;;;;4465845;32;20246;-58
2021/08/01 12:11:17;;;;;;;5.45;2.97;;;;;;;;;;4465848;32;20204;-57
2021/08/01 12:14:11;;;;;;;7.28;3.28;;;;;;;;;;4453804;32;20733;-58
2021/08/01 12:16:49;;;;;;;8.25;4.10;;;;;;;;;;4449650;32;20212;-58
2021/08/01 12:19:20;;;;;;;6.30;3.25;;;;;;;;;;4448683;32;20228;-57
2021/08/01 12:21:48;;;;;;;7.28;2.70;;;;;;;;;;4450459;32;20472;-58
2021/08/01 12:24:39;;;;;;;5.78;3.83;;;;;;;;;;4448871;32;20284;-57
2021/08/01 12:27:12;;;;;;;11.45;3.65;;;;;;;;;;4449976;32;20216;-57
2021/08/01 12:29:44;;;;;;;10.63;3.45;;;;;;;;;;4449031;32;20268;-58
2021/08/01 12:32:44;;;;;;;6.62;3.20;;;;;;;;;;4458466;32;20747;-59
2021/08/01 12:35:20;;;;;;;11.45;3.65;;;;;;;;;;4465308;32;20197;-58
2021/08/01 12:38:05;;;;;;;8.85;3.80;;;;;;;;;;4465140;32;20220;-58
2021/08/01 12:40:43;;;;;;;10.10;3.83;;;;;;;;;;4463691;32;20219;-58
2021/08/01 12:43:14;;;;;;;11.38;4.05;;;;;;;;;;4464895;32;20328;-58
2021/08/01 12:45:44;;;;;;;6.70;4.32;;;;;;;;;;4464273;32;20208;-57
2021/08/01 12:48:16;;;;;;;7.05;4.18;;;;;;;;;;4463729;32;20620;-58
2021/08/01 12:50:46;;;;;;;6.37;3.97;;;;;;;;;;4464527;32;20216;-58
2021/08/01 12:53:13;;;;;;;4.78;2.97;;;;;;;;;;4464761;32;20224;-57
2021/08/01 12:55:40;;;;;;;8.25;4.28;;;;;;;;;;4465029;32;20621;-58
2021/08/01 12:58:08;;;;;;;4.82;3.12;;;;;;;;;;4464652;32;20337;-58
2021/08/01 13:00:35;;;;;;;10.80;3.25;;;;;;;;;;4464830;32;20363;-58
2021/08/01 13:03:04;;;;;;;15.68;3.97;;;;;;;;;;4464737;32;20259;-57
2021/08/01 13:05:35;;;;;;;6.60;3.42;;;;;;;;;;4465210;32;20231;-57
2021/08/01 13:08:02;;;;;;;12.50;3.97;;;;;;;;;;4464984;32;20242;-57
2021/08/01 13:10:31;;;;;;;5.75;3.55;;;;;;;;;;4450768;32;20216;-58
2021/08/01 13:13:14;;;;;;;12.55;5.43;;;;;;;;;;4449074;32;20705;-58
2021/08/01 13:15:53;;;;;;;7.03;3.40;;;;;;;;;;4449567;32;20234;-58
2021/08/01 13:18:33;;;;;;;6.65;3.55;;;;;;;;;;4449165;32;20545;-57
2021/08/01 13:21:22;;;;;;;8.27;3.92;;;;;;;;;;4449250;32;20290;-57
2021/08/01 13:23:49;;;;;;;7.75;3.80;;;;;;;;;;4447790;32;20278;-58
2021/08/01 13:26:26;;;;;;;9.98;4.20;;;;;;;;;;4448952;32;20660;-58
2021/08/01 13:28:53;;;;;;;5.68;3.62;;;;;;;;;;4448533;32;20205;-57
2021/08/01 13:31:24;;;;;;;7.70;3.87;;;;;;;;;;4451511;32;20284;-57
2021/08/01 13:33:55;;;;;;;6.72;3.92;;;;;;;;;;4464324;32;20213;-58
2021/08/01 13:36:21;;;;;;;11.57;3.47;;;;;;;;;;4464607;32;20598;-57
2021/08/01 13:38:46;;;;;;;6.55;3.40;;;;;;;;;;4464239;32;20351;-58
2021/08/01 13:41:21;;;;;;;5.03;3.22;;;;;;;;;;4464015;32;20215;-58
2021/08/01 13:44:09;;;;;;;8.95;3.15;;;;;;;;;;4464129;32;20299;-58
2021/08/01 13:46:35;;;;;;;10.20;3.83;;;;;;;;;;4464002;32;20621;-58
2021/08/01 13:49:00;;;;;;;12.40;4.53;;;;;;;;;;4464001;32;20204;-57
2021/08/01 13:51:26;;;;;;;7.45;4.03;;;;;;;;;;4463590;32;20332;-57
2021/08/01 13:53:51;;;;;;;13.50;4.53;;;;;;;;;;4464031;32;20204;-58
2021/08/01 13:56:17;;;;;;;8.30;4.05;;;;;;;;;;4464739;32;20572;-57
2021/08/01 13:58:42;;;;;;;6.18;3.25;;;;;;;;;;4465746;32;20654;-58
2021/08/01 14:01:08;;;;;;;7.35;4.10;;;;;;;;;;4467310;32;20262;-58
2021/08/01 14:03:33;;;;;;;8.57;3.87;;;;;;;;;;4466779;32;20220;-58
2021/08/01 14:06:00;;;;;;;7.20;3.05;;;;;;;;;;4457865;32;20275;-58
2021/08/01 14:08:25;;;;;;;8.57;4.18;;;;;;;;;;4451214;32;20212;-57
2021/08/01 14:10:52;;;;;;;12.95;3.87;;;;;;;;;;4451227;32;20605;-57
2021/08/01 14:13:18;;;;;;;10.43;4.95;;;;;;;;;;4451058;32;20624;-58
2021/08/01 14:15:43;;;;;;;8.48;3.53;;;;;;;;;;4450130;32;20338;-59
2021/08/01 14:18:08;;;;;;;6.28;3.08;;;;;;;;;;4449921;32;20317;-58
2021/08/01 14:20:34;;;;;;;6.78;3.42;;;;;;;;;;4451146;32;20294;-58
2021/08/01 14:22:59;;;;;;;15.85;5.12;;;;;;;;;;4449971;32;20237;-57
2021/08/01 14:25:25;;;;;;;6.70;4.28;;;;;;;;;;4451377;32;20660;-58
2021/08/01 14:27:51;;;;;;;10.40;4.12;;;;;;;;;;4451144;32;20636;-57
2021/08/01 14:30:17;;;;;;;8.38;3.67;;;;;;;;;;4451313;32;20267;-60
2021/08/01 14:32:50;;;;;;;9.27;3.75;;;;;;;;;;4462822;32;20228;-58
2021/08/01 14:35:17;;;;;;;15.02;4.35;;;;;;;;;;4466823;32;20308;-59
2021/08/01 14:37:43;;;;;;;13.25;4.85;;;;;;;;;;4466498;32;20244;-57
2021/08/01 14:40:08;;;;;;;10.55;4.18;;;;;;;;;;4465491;32;20345;-59
2021/08/01 14:42:34;;;;;;;10.45;3.78;;;;;;;;;;4466397;32;20228;-58